Time;durP1;ratioP1;P1;durP2;ratioP2;P2;SDS_P1;SDS_P2;PMS_P1;PMS_P2;Temp;Humidity;BMP_temperature;BMP_pressure;BME280_temperature;BME280_humidity;BME280_pressure;Samples;Min_cycle;Max_cycle;Signal;HPM_P1;HPM_P2
2023/06/24 00:00:06;;;;;;;6.57;2.93;;;14.20;99.90;;;;;;5061869;28;20284;-74
2023/06/24 00:02:33;;;;;;;5.43;2.70;;;14.20;99.90;;;;;;5057633;28;20260;-74
2023/06/24 00:05:00;;;;;;;3.67;2.73;;;14.20;99.90;;;;;;5053095;28;20424;-74
2023/06/24 00:07:26;;;;;;;5.27;2.60;;;14.20;99.90;;;;;;5054967;28;20439;-74
2023/06/24 00:09:52;;;;;;;6.67;3.30;;;14.10;99.90;;;;;;5064651;28;20409;-74
2023/06/24 00:12:19;;;;;;;7.10;3.07;;;14.10;99.90;;;;;;5053035;28;20524;-74
2023/06/24 00:14:46;;;;;;;3.60;2.10;;;14.00;99.90;;;;;;5052886;28;20638;-74
2023/06/24 00:17:11;;;;;;;5.60;2.33;;;14.00;99.90;;;;;;5055848;28;20506;-74
2023/06/24 00:19:37;;;;;;;5.80;3.23;;;14.00;99.90;;;;;;5063513;28;20541;-74
2023/06/24 00:22:03;;;;;;;6.70;2.67;;;14.00;99.90;;;;;;5065810;28;20186;-74
2023/06/24 00:24:29;;;;;;;5.50;2.90;;;13.90;99.90;;;;;;5052834;28;20213;-74
2023/06/24 00:26:56;;;;;;;5.33;3.27;;;13.90;99.90;;;;;;5056083;28;20419;-74
2023/06/24 00:29:21;;;;;;;8.13;3.90;;;13.90;99.90;;;;;;5063064;28;20745;-74
2023/06/24 00:31:47;;;;;;;7.27;3.20;;;13.80;99.90;;;;;;5052425;28;20420;-74
2023/06/24 00:34:13;;;;;;;9.40;3.40;;;13.80;99.90;;;;;;5062685;28;20181;-73
2023/06/24 00:36:39;;;;;;;4.90;2.60;;;13.70;99.90;;;;;;5059182;28;20427;-74
2023/06/24 00:39:05;;;;;;;7.57;3.10;;;13.60;99.90;;;;;;5062645;28;20760;-74
2023/06/24 00:41:32;;;;;;;7.40;2.97;;;13.60;99.90;;;;;;5052635;28;20217;-74
2023/06/24 00:43:58;;;;;;;5.20;3.10;;;13.60;99.90;;;;;;5062658;28;20457;-74
2023/06/24 00:46:27;;;;;;;5.20;3.00;;;13.60;99.90;;;;;;5058588;28;20427;-74
2023/06/24 00:48:55;;;;;;;4.47;2.57;;;13.60;99.90;;;;;;5062004;28;21059;-74
2023/06/24 00:51:26;;;;;;;6.50;3.20;;;13.60;99.90;;;;;;5052283;28;20474;-74
2023/06/24 00:53:52;;;;;;;8.17;3.00;;;13.60;99.90;;;;;;5057039;28;20429;-74
2023/06/24 00:56:21;;;;;;;7.40;3.00;;;13.60;99.90;;;;;;5066062;28;20423;-74
2023/06/24 00:58:47;;;;;;;4.77;2.90;;;13.60;99.90;;;;;;5064151;28;20423;-74
2023/06/24 01:01:14;;;;;;;5.70;3.13;;;13.60;99.90;;;;;;5058224;28;20461;-74
2023/06/24 01:03:40;;;;;;;7.07;2.93;;;13.60;99.90;;;;;;5060068;28;20610;-74
2023/06/24 01:06:06;;;;;;;14.80;3.50;;;13.50;99.90;;;;;;5052348;28;20507;-74
2023/06/24 01:08:31;;;;;;;5.43;2.83;;;13.40;99.90;;;;;;5064990;28;20173;-74
2023/06/24 01:10:57;;;;;;;8.37;3.27;;;13.40;99.90;;;;;;5072133;28;20415;-74
2023/06/24 01:13:23;;;;;;;7.00;3.30;;;13.40;99.90;;;;;;5064852;28;20182;-74
2023/06/24 01:15:49;;;;;;;5.97;3.30;;;13.40;99.90;;;;;;5052282;28;20495;-73
2023/06/24 01:18:44;;;;;;;8.10;3.40;;;13.40;99.90;;;;;;5051842;28;20427;-74
2023/06/24 01:21:23;;;;;;;6.23;2.90;;;13.20;99.90;;;;;;5052395;28;20185;-74
2023/06/24 01:24:31;;;;;;;4.93;2.90;;;13.20;99.90;;;;;;5066580;28;20468;-74
2023/06/24 01:27:25;;;;;;;5.83;3.90;;;13.10;99.90;;;;;;5052132;28;20909;-74
2023/06/24 01:30:12;;;;;;;8.10;3.50;;;13.10;99.90;;;;;;5019117;28;21273;-74
2023/06/24 01:32:44;;;;;;;7.30;3.40;;;13.00;99.90;;;;;;5062479;28;20415;-73
2023/06/24 01:35:20;;;;;;;4.30;2.77;;;13.00;99.90;;;;;;5049595;28;20961;-74
2023/06/24 01:37:51;;;;;;;6.30;2.90;;;13.00;99.90;;;;;;5046641;28;20811;-74
2023/06/24 01:40:26;;;;;;;6.13;3.93;;;13.00;99.90;;;;;;5066356;28;20420;-74
2023/06/24 01:42:53;;;;;;;8.30;2.80;;;13.00;99.90;;;;;;5052730;28;20853;-74
2023/06/24 01:45:27;;;;;;;5.33;2.83;;;13.00;99.90;;;;;;5065243;28;20416;-74
2023/06/24 01:48:07;;;;;;;7.70;2.87;;;13.10;99.90;;;;;;5051534;28;20446;-74
2023/06/24 01:50:34;;;;;;;5.57;2.50;;;13.00;99.90;;;;;;5052441;28;20396;-74
2023/06/24 01:53:04;;;;;;;5.83;2.77;;;13.00;99.90;;;;;;5065750;28;20416;-74
2023/06/24 01:55:33;;;;;;;5.10;2.83;;;13.00;99.90;;;;;;5063316;28;20560;-74
2023/06/24 01:58:02;;;;;;;5.27;3.63;;;13.00;99.90;;;;;;5058932;28;20431;-74
2023/06/24 02:00:29;;;;;;;6.60;3.47;;;13.00;99.90;;;;;;5060265;28;20529;-74
2023/06/24 02:02:55;;;;;;;6.07;3.37;;;13.00;99.90;;;;;;5071041;28;20958;-74
2023/06/24 02:05:22;;;;;;;5.67;2.27;;;12.90;99.90;;;;;;5072110;28;20415;-74
2023/06/24 02:07:50;;;;;;;8.50;3.87;;;12.90;99.90;;;;;;5062035;28;20434;-74
2023/06/24 02:10:16;;;;;;;5.17;3.80;;;12.80;99.90;;;;;;5060412;28;20413;-74
2023/06/24 02:12:43;;;;;;;5.87;3.17;;;12.90;99.90;;;;;;5066036;28;20423;-74
2023/06/24 02:15:10;;;;;;;5.90;3.33;;;12.70;99.90;;;;;;5052480;28;21128;-74
2023/06/24 02:17:37;;;;;;;5.63;3.07;;;12.70;99.90;;;;;;5054596;28;20797;-74
2023/06/24 02:20:06;;;;;;;5.17;3.00;;;12.60;99.90;;;;;;5065511;28;20910;-74
2023/06/24 02:22:32;;;;;;;4.13;2.80;;;12.60;99.90;;;;;;5071828;28;20476;-73
2023/06/24 02:24:58;;;;;;;4.70;2.43;;;12.60;99.90;;;;;;5058770;28;20436;-73
2023/06/24 02:27:24;;;;;;;4.50;2.43;;;12.60;99.90;;;;;;5065594;28;20568;-75
2023/06/24 02:29:51;;;;;;;4.40;2.50;;;12.60;99.90;;;;;;5052355;28;20415;-74
2023/06/24 02:32:16;;;;;;;5.43;3.10;;;12.50;99.90;;;;;;5060557;28;20447;-74
2023/06/24 02:34:42;;;;;;;4.70;2.53;;;12.50;99.90;;;;;;5055409;28;20939;-73
2023/06/24 02:37:08;;;;;;;4.37;2.80;;;12.50;99.90;;;;;;5068607;28;20209;-74
2023/06/24 02:39:35;;;;;;;5.40;3.40;;;12.40;99.90;;;;;;5068852;28;20408;-74
2023/06/24 02:42:00;;;;;;;7.67;3.87;;;12.40;99.90;;;;;;5061830;28;20185;-74
2023/06/24 02:44:26;;;;;;;6.03;2.27;;;12.40;99.90;;;;;;5074990;28;20528;-74
2023/06/24 02:46:54;;;;;;;5.63;2.90;;;12.40;99.90;;;;;;5037101;28;20190;-74
2023/06/24 02:49:21;;;;;;;6.10;2.90;;;12.40;99.90;;;;;;5068651;28;20192;-74
2023/06/24 02:51:48;;;;;;;5.27;3.20;;;12.50;99.90;;;;;;5067898;28;20420;-74
2023/06/24 02:54:14;;;;;;;5.40;2.97;;;12.50;99.90;;;;;;5061065;28;20450;-74
2023/06/24 02:56:44;;;;;;;5.40;3.37;;;12.50;99.90;;;;;;5062470;28;20422;-74
2023/06/24 02:59:10;;;;;;;5.80;3.00;;;12.50;99.90;;;;;;5061589;28;20924;-74
2023/06/24 03:01:38;;;;;;;7.73;3.00;;;12.40;99.90;;;;;;5066761;28;20916;-74
2023/06/24 03:04:04;;;;;;;6.03;2.80;;;12.30;99.90;;;;;;5068229;28;20799;-74
2023/06/24 03:06:31;;;;;;;5.40;3.13;;;12.40;99.90;;;;;;5062563;28;20411;-74
2023/06/24 03:08:58;;;;;;;6.73;3.37;;;12.30;99.90;;;;;;5073550;28;20445;-74
2023/06/24 03:11:25;;;;;;;10.40;3.80;;;12.30;99.90;;;;;;5062704;28;20476;-74
2023/06/24 03:13:51;;;;;;;5.40;3.17;;;12.30;99.90;;;;;;5041953;28;21019;-74
2023/06/24 03:16:17;;;;;;;7.03;3.60;;;12.30;99.90;;;;;;5061897;28;20485;-73
2023/06/24 03:18:42;;;;;;;6.00;3.70;;;12.30;99.90;;;;;;5054585;28;20173;-73
2023/06/24 03:21:09;;;;;;;15.00;4.40;;;12.30;99.90;;;;;;5062912;28;20231;-74
2023/06/24 03:23:35;;;;;;;6.13;3.63;;;12.30;99.90;;;;;;5072486;28;20259;-74
2023/06/24 03:26:02;;;;;;;4.87;3.50;;;12.40;99.90;;;;;;5054539;28;20853;-74
2023/06/24 03:28:29;;;;;;;6.33;3.10;;;12.40;99.90;;;;;;5070140;28;20222;-74
2023/06/24 03:30:55;;;;;;;4.60;2.47;;;12.30;99.90;;;;;;5073986;28;20410;-74
2023/06/24 03:33:20;;;;;;;6.57;3.57;;;12.30;99.90;;;;;;5061112;28;20417;-74
2023/06/24 03:35:46;;;;;;;7.93;3.03;;;12.30;99.90;;;;;;5074279;28;20256;-74
2023/06/24 03:38:12;;;;;;;8.50;3.47;;;12.30;99.90;;;;;;5071770;28;20173;-74
2023/06/24 03:40:37;;;;;;;5.33;2.83;;;12.40;99.90;;;;;;5062991;28;20181;-74
2023/06/24 03:43:03;;;;;;;9.43;3.90;;;12.30;99.90;;;;;;5071339;28;20807;-73
2023/06/24 03:45:29;;;;;;;4.80;2.93;;;12.30;99.90;;;;;;5063307;28;20574;-74
2023/06/24 03:47:54;;;;;;;8.20;3.90;;;12.20;99.90;;;;;;5060268;28;20185;-74
2023/06/24 03:50:20;;;;;;;6.50;3.57;;;12.20;99.90;;;;;;5065251;28;20180;-74
2023/06/24 03:52:45;;;;;;;4.83;3.20;;;12.20;99.90;;;;;;5053976;28;20174;-74
2023/06/24 03:55:11;;;;;;;6.00;3.27;;;12.30;99.90;;;;;;5063119;28;20181;-73
2023/06/24 03:57:37;;;;;;;6.70;3.80;;;12.30;99.90;;;;;;5060680;28;20279;-74
2023/06/24 04:00:16;;;;;;;10.50;3.67;;;12.30;99.90;;;;;;5065253;28;20201;-74
2023/06/24 04:02:42;;;;;;;5.77;2.90;;;12.40;99.90;;;;;;5070694;28;20905;-74
2023/06/24 04:05:09;;;;;;;5.73;2.97;;;12.40;99.90;;;;;;5045281;28;20439;-74
2023/06/24 04:07:35;;;;;;;6.97;4.20;;;12.50;99.90;;;;;;5057438;28;20415;-74
2023/06/24 04:10:10;;;;;;;8.93;3.97;;;12.50;99.90;;;;;;5063326;28;20479;-74
2023/06/24 04:12:36;;;;;;;5.87;3.80;;;12.70;99.90;;;;;;5053602;28;20409;-74
2023/06/24 04:15:05;;;;;;;8.97;3.70;;;12.70;99.90;;;;;;5053777;28;20420;-74
2023/06/24 04:17:31;;;;;;;5.77;3.53;;;12.70;99.90;;;;;;5066704;28;20182;-74
2023/06/24 04:19:58;;;;;;;7.13;3.83;;;12.80;99.90;;;;;;5053416;28;20414;-74
2023/06/24 04:22:24;;;;;;;6.50;4.03;;;12.80;99.90;;;;;;5067893;28;20263;-74
2023/06/24 04:24:50;;;;;;;7.97;3.77;;;12.90;99.90;;;;;;5060710;28;20478;-74
2023/06/24 04:27:15;;;;;;;4.53;3.23;;;12.90;99.90;;;;;;5069326;28;20419;-74
2023/06/24 04:29:41;;;;;;;7.20;3.80;;;13.00;99.90;;;;;;5073659;28;20264;-74
2023/06/24 04:32:07;;;;;;;6.50;3.67;;;13.10;99.90;;;;;;5055971;28;20178;-74
2023/06/24 04:34:33;;;;;;;14.33;4.27;;;13.20;99.90;;;;;;5055201;28;20222;-74
2023/06/24 04:36:58;;;;;;;7.53;4.23;;;13.20;99.90;;;;;;5053264;28;20173;-74
2023/06/24 04:39:24;;;;;;;6.60;3.43;;;13.20;99.90;;;;;;5065962;28;20189;-74
2023/06/24 04:41:50;;;;;;;5.60;3.83;;;13.40;99.90;;;;;;5067367;28;20548;-74
2023/06/24 04:44:15;;;;;;;6.83;3.63;;;13.50;99.90;;;;;;5065639;28;20285;-74
2023/06/24 04:46:41;;;;;;;9.23;4.40;;;13.50;99.90;;;;;;5053867;28;20177;-74
2023/06/24 04:49:07;;;;;;;9.17;4.40;;;13.60;99.90;;;;;;5065976;28;20184;-74
2023/06/24 04:51:32;;;;;;;5.73;3.07;;;13.60;99.90;;;;;;5072975;28;20692;-74
2023/06/24 04:53:58;;;;;;;7.27;3.27;;;13.70;99.90;;;;;;5059786;28;20181;-74
2023/06/24 04:56:24;;;;;;;8.90;4.00;;;13.70;99.90;;;;;;5058881;28;20204;-74
2023/06/24 04:58:50;;;;;;;9.20;4.27;;;13.80;99.90;;;;;;5073222;28;20176;-74
2023/06/24 05:01:17;;;;;;;5.23;3.00;;;13.90;99.90;;;;;;5066583;28;20435;-74
2023/06/24 05:03:42;;;;;;;6.57;3.50;;;13.90;99.90;;;;;;5052922;28;20198;-74
2023/06/24 05:06:08;;;;;;;7.90;3.80;;;14.00;99.90;;;;;;5059069;28;20502;-74
2023/06/24 05:08:33;;;;;;;6.80;3.80;;;14.10;99.90;;;;;;5060494;28;20269;-74
2023/06/24 05:10:59;;;;;;;9.23;3.60;;;14.10;99.90;;;;;;5058350;28;20260;-73
2023/06/24 05:13:25;;;;;;;5.87;3.50;;;14.20;99.90;;;;;;5059808;28;20185;-73
2023/06/24 05:15:51;;;;;;;5.47;3.37;;;14.20;99.90;;;;;;5052711;28;20184;-74
2023/06/24 05:18:16;;;;;;;9.07;4.00;;;14.30;99.90;;;;;;5052855;28;20416;-74
2023/06/24 05:20:42;;;;;;;7.20;3.80;;;14.30;99.90;;;;;;5057832;28;20653;-74
2023/06/24 05:23:07;;;;;;;6.17;3.33;;;14.40;99.90;;;;;;5060771;28;20225;-74
2023/06/24 05:25:33;;;;;;;7.97;3.90;;;14.50;99.90;;;;;;5065865;28;20769;-74
2023/06/24 05:27:59;;;;;;;6.13;3.30;;;14.60;99.90;;;;;;5064657;28;20229;-74
2023/06/24 05:30:24;;;;;;;7.23;3.63;;;14.70;99.90;;;;;;5054174;28;20535;-73
2023/06/24 05:32:50;;;;;;;7.17;3.80;;;14.70;99.90;;;;;;5052545;28;20180;-74
2023/06/24 05:35:16;;;;;;;6.03;3.27;;;14.80;99.90;;;;;;5066046;28;20220;-73
2023/06/24 05:37:41;;;;;;;6.40;3.50;;;14.90;99.90;;;;;;5063914;28;20180;-73
2023/06/24 05:40:07;;;;;;;5.00;3.60;;;15.10;99.90;;;;;;5067072;28;20682;-75
2023/06/24 05:42:33;;;;;;;6.33;2.90;;;15.30;99.90;;;;;;5062762;28;20181;-74
2023/06/24 05:44:59;;;;;;;7.17;3.53;;;;;;;;;;5067473;28;20810;-74
2023/06/24 05:47:25;;;;;;;3.93;2.23;;;15.50;99.90;;;;;;5051508;28;20642;-74
2023/06/24 05:49:50;;;;;;;6.87;3.37;;;15.50;99.90;;;;;;5051806;28;20413;-74
2023/06/24 05:52:16;;;;;;;5.47;3.20;;;15.60;99.90;;;;;;5051578;28;20188;-74
2023/06/24 05:54:42;;;;;;;5.83;3.40;;;15.60;99.90;;;;;;5056205;28;20185;-74
2023/06/24 05:57:09;;;;;;;7.57;4.00;;;15.70;99.90;;;;;;5071935;28;20211;-74
2023/06/24 05:59:34;;;;;;;5.50;3.00;;;15.80;99.90;;;;;;5054689;28;20185;-74
2023/06/24 06:02:01;;;;;;;6.03;2.57;;;15.90;99.90;;;;;;5062371;28;20462;-74
2023/06/24 06:04:27;;;;;;;7.37;3.23;;;16.00;99.90;;;;;;5054448;28;20615;-74
2023/06/24 06:06:53;;;;;;;4.40;3.00;;;16.10;99.90;;;;;;5055150;28;20504;-74
2023/06/24 06:09:19;;;;;;;4.80;2.47;;;16.30;99.90;;;;;;5068855;28;20988;-74
2023/06/24 06:11:45;;;;;;;5.53;3.30;;;16.40;99.90;;;;;;5054769;28;20280;-74
2023/06/24 06:14:10;;;;;;;5.07;2.90;;;16.40;99.90;;;;;;5068078;28;20499;-74
2023/06/24 06:16:36;;;;;;;5.97;2.80;;;16.50;99.90;;;;;;5066568;28;20540;-74
2023/06/24 06:19:02;;;;;;;7.23;3.23;;;16.60;99.90;;;;;;5057092;28;20217;-74
2023/06/24 06:21:28;;;;;;;4.00;2.40;;;16.60;99.90;;;;;;5055042;28;20541;-74
2023/06/24 06:23:54;;;;;;;6.47;2.60;;;16.70;99.90;;;;;;5068517;28;20919;-74
2023/06/24 06:26:19;;;;;;;8.60;3.40;;;16.80;99.90;;;;;;5067021;28;20186;-74
2023/06/24 06:28:47;;;;;;;3.87;2.63;;;16.90;99.90;;;;;;5056599;28;20240;-74
2023/06/24 06:31:13;;;;;;;5.20;3.13;;;17.00;99.90;;;;;;5043530;28;20224;-74
2023/06/24 06:33:38;;;;;;;7.20;2.37;;;17.00;99.90;;;;;;5060634;28;20912;-74
2023/06/24 06:36:04;;;;;;;4.63;2.17;;;17.10;99.90;;;;;;5066335;28;20611;-74
2023/06/24 06:38:30;;;;;;;6.80;2.57;;;17.20;99.90;;;;;;5062719;28;20200;-74
2023/06/24 06:40:55;;;;;;;4.47;2.30;;;17.40;99.90;;;;;;5065667;28;20193;-74
2023/06/24 06:43:21;;;;;;;3.63;2.20;;;17.50;99.90;;;;;;5056235;28;20256;-74
2023/06/24 06:45:47;;;;;;;7.07;2.70;;;17.60;99.90;;;;;;5066013;28;20208;-74
2023/06/24 06:48:12;;;;;;;3.53;2.00;;;17.70;99.90;;;;;;5056142;28;20193;-74
2023/06/24 06:50:38;;;;;;;4.07;2.13;;;17.80;99.90;;;;;;5065368;28;20192;-75
2023/06/24 06:53:04;;;;;;;5.07;2.50;;;18.00;99.90;;;;;;5069058;28;20182;-74
2023/06/24 06:55:29;;;;;;;4.20;2.40;;;18.10;99.90;;;;;;5059871;28;20239;-74
2023/06/24 06:57:55;;;;;;;4.63;1.83;;;18.20;99.90;;;;;;5067746;28;20240;-74
2023/06/24 07:00:21;;;;;;;2.83;1.80;;;18.40;99.90;;;;;;5065408;28;20177;-74
2023/06/24 07:02:46;;;;;;;3.23;2.00;;;18.40;99.90;;;;;;5054840;28;20627;-74
2023/06/24 07:05:12;;;;;;;3.90;2.50;;;18.70;99.50;;;;;;5065482;28;20173;-74
2023/06/24 07:07:38;;;;;;;2.53;1.60;;;18.80;99.00;;;;;;5067915;28;20185;-74
2023/06/24 07:10:05;;;;;;;4.43;1.90;;;19.00;98.60;;;;;;5053848;28;20220;-73
2023/06/24 07:12:30;;;;;;;3.80;1.93;;;19.10;98.30;;;;;;5071326;28;20181;-73
2023/06/24 07:14:56;;;;;;;4.23;1.90;;;19.30;97.70;;;;;;5061604;28;20511;-73
2023/06/24 07:17:22;;;;;;;7.43;2.30;;;19.50;96.90;;;;;;5052610;28;20213;-73
2023/06/24 07:19:48;;;;;;;3.03;1.83;;;19.90;95.70;;;;;;5053285;28;20685;-74
2023/06/24 07:22:14;;;;;;;4.30;2.00;;;19.90;95.40;;;;;;5069684;28;20196;-73
2023/06/24 07:24:41;;;;;;;4.17;1.53;;;20.20;95.90;;;;;;5072273;28;20700;-73
2023/06/24 07:27:06;;;;;;;3.90;1.43;;;20.40;94.00;;;;;;5073049;28;20458;-73
2023/06/24 07:29:32;;;;;;;4.00;2.67;;;20.80;93.50;;;;;;5062019;28;20420;-73
2023/06/24 07:31:58;;;;;;;7.40;2.10;;;21.30;93.50;;;;;;5052379;28;20181;-74
2023/06/24 07:34:23;;;;;;;3.53;1.67;;;21.70;93.10;;;;;;5052904;28;20268;-74
2023/06/24 07:36:50;;;;;;;4.20;2.10;;;22.00;91.30;;;;;;5051968;28;20201;-73
2023/06/24 07:39:16;;;;;;;3.10;2.00;;;22.30;90.60;;;;;;5053104;28;20683;-74
2023/06/24 07:41:42;;;;;;;3.70;1.80;;;22.60;90.50;;;;;;5051944;28;20412;-74
2023/06/24 07:44:08;;;;;;;9.10;2.07;;;23.40;90.40;;;;;;5052171;28;20508;-74
2023/06/24 07:46:34;;;;;;;3.60;1.97;;;24.30;87.50;;;;;;5051312;28;20193;-68
2023/06/24 07:49:00;;;;;;;6.97;3.00;;;25.10;84.30;;;;;;5052049;28;20193;-67
2023/06/24 07:51:26;;;;;;;3.17;1.77;;;25.60;81.00;;;;;;5051185;28;20196;-67
2023/06/24 07:53:52;;;;;;;6.10;2.22;;;26.00;79.10;;;;;;5060195;28;20189;-67
2023/06/24 07:56:18;;;;;;;5.63;1.95;;;26.90;76.60;;;;;;5051841;28;20571;-67
2023/06/24 07:58:43;;;;;;;4.77;2.37;;;27.50;75.40;;;;;;5050518;28;20900;-68
2023/06/24 08:01:09;;;;;;;3.88;2.03;;;27.50;73.40;;;;;;5051373;28;20388;-68
2023/06/24 08:03:36;;;;;;;2.55;1.67;;;27.90;72.20;;;;;;5048324;28;20229;-68
2023/06/24 08:06:02;;;;;;;4.85;2.80;;;28.00;70.40;;;;;;5057880;28;20173;-68
2023/06/24 08:08:28;;;;;;;5.55;2.40;;;28.10;71.20;;;;;;5052381;28;20754;-68
2023/06/24 08:10:53;;;;;;;6.97;2.60;;;28.90;67.10;;;;;;5051150;28;20189;-68
2023/06/24 08:13:19;;;;;;;4.03;1.70;;;28.50;68.40;;;;;;5052082;28;20185;-68
2023/06/24 08:15:45;;;;;;;2.88;1.85;;;28.20;69.00;;;;;;5051698;28;20500;-67
2023/06/24 08:18:10;;;;;;;4.55;1.95;;;27.80;68.80;;;;;;5051141;28;20273;-68
2023/06/24 08:20:36;;;;;;;2.80;2.00;;;27.60;69.40;;;;;;5064333;28;20173;-67
2023/06/24 08:23:02;;;;;;;2.92;1.80;;;27.30;70.20;;;;;;5051271;28;20880;-73
2023/06/24 08:25:27;;;;;;;4.03;2.15;;;26.70;72.20;;;;;;5051321;28;20189;-74
2023/06/24 08:27:53;;;;;;;4.38;2.30;;;26.50;72.50;;;;;;5050289;28;20678;-74
2023/06/24 08:30:19;;;;;;;3.20;2.05;;;27.40;70.20;;;;;;5052683;28;20176;-74
2023/06/24 08:32:44;;;;;;;12.98;2.28;;;27.50;70.10;;;;;;5049594;28;20602;-74
2023/06/24 08:35:10;;;;;;;2.95;1.75;;;28.10;68.50;;;;;;5054728;28;20197;-74
2023/06/24 08:37:37;;;;;;;3.15;1.90;;;27.90;68.90;;;;;;5061878;28;20184;-74
2023/06/24 08:40:07;;;;;;;2.35;1.48;;;28.20;69.10;;;;;;5052915;28;20631;-74
2023/06/24 08:42:33;;;;;;;5.93;2.03;;;28.10;67.50;;;;;;5050570;28;20195;-72
2023/06/24 08:44:58;;;;;;;3.45;2.03;;;28.60;67.50;;;;;;5046756;28;20205;-72
2023/06/24 08:47:24;;;;;;;4.03;2.17;;;28.20;66.60;;;;;;5043399;28;20178;-72
2023/06/24 08:49:58;;;;;;;3.75;2.35;;;28.30;67.30;;;;;;5050857;28;20181;-72
2023/06/24 08:52:29;;;;;;;4.72;1.67;;;28.00;66.60;;;;;;5050166;28;20181;-72
2023/06/24 08:54:57;;;;;;;3.72;2.38;;;28.40;66.30;;;;;;5048351;28;20516;-72
2023/06/24 08:57:23;;;;;;;4.30;1.80;;;28.40;66.50;;;;;;5050898;28;20196;-72
2023/06/24 08:59:49;;;;;;;5.10;2.17;;;28.60;63.10;;;;;;5051266;28;20646;-72
2023/06/24 09:02:15;;;;;;;3.63;1.80;;;28.70;61.40;;;;;;5050181;28;20254;-72
2023/06/24 09:04:41;;;;;;;3.17;1.73;;;29.10;58.30;;;;;;5050403;28;20204;-74
2023/06/24 09:07:07;;;;;;;3.80;2.05;;;28.70;63.00;;;;;;5050469;28;20174;-74
2023/06/24 09:09:33;;;;;;;5.60;2.47;;;28.50;63.90;;;;;;5057350;28;20207;-74
2023/06/24 09:12:01;;;;;;;4.85;2.00;;;27.90;63.70;;;;;;5057263;28;20179;-74
2023/06/24 09:14:29;;;;;;;3.72;2.10;;;28.20;62.40;;;;;;5047326;28;20274;-74
2023/06/24 09:16:56;;;;;;;3.40;2.08;;;27.90;63.90;;;;;;5050187;28;20502;-74
2023/06/24 09:19:29;;;;;;;3.67;2.03;;;28.10;62.60;;;;;;5047736;28;20534;-74
2023/06/24 09:22:06;;;;;;;3.75;1.80;;;27.90;66.20;;;;;;5050124;28;20181;-74
2023/06/24 09:24:32;;;;;;;3.25;1.58;;;28.30;62.70;;;;;;5049243;28;20236;-75
2023/06/24 09:26:58;;;;;;;2.97;1.65;;;28.50;62.60;;;;;;5053752;28;20164;-75
2023/06/24 09:29:28;;;;;;;3.53;2.05;;;28.70;61.60;;;;;;5070506;28;20622;-74
2023/06/24 09:31:56;;;;;;;6.13;2.63;;;28.90;59.80;;;;;;5052080;28;20625;-74
2023/06/24 09:34:23;;;;;;;4.68;2.30;;;28.60;60.10;;;;;;5050611;28;20180;-74
2023/06/24 09:36:53;;;;;;;2.83;1.80;;;28.50;62.40;;;;;;5032207;28;20195;-74
2023/06/24 09:39:21;;;;;;;2.38;1.67;;;28.30;61.80;;;;;;5051218;28;20177;-74
2023/06/24 09:41:50;;;;;;;2.50;1.52;;;28.40;60.20;;;;;;5054371;28;20177;-74
2023/06/24 09:44:16;;;;;;;3.30;1.67;;;28.60;59.70;;;;;;5054342;28;20228;-74
2023/06/24 09:46:43;;;;;;;3.67;2.05;;;28.80;59.00;;;;;;5053727;28;20559;-74
2023/06/24 09:49:08;;;;;;;3.17;1.40;;;28.40;61.10;;;;;;5051510;28;20181;-74
2023/06/24 09:51:39;;;;;;;2.80;1.83;;;27.70;63.30;;;;;;5058512;28;20188;-74
2023/06/24 09:54:08;;;;;;;3.72;2.13;;;27.10;63.50;;;;;;5052573;28;20235;-74
2023/06/24 09:56:39;;;;;;;2.92;1.92;;;27.60;64.20;;;;;;5056819;28;20189;-74
2023/06/24 09:59:05;;;;;;;3.08;1.55;;;27.90;63.10;;;;;;5053544;28;20213;-74
2023/06/24 10:01:38;;;;;;;4.63;1.63;;;27.80;63.00;;;;;;5053888;28;20566;-73
2023/06/24 10:04:05;;;;;;;3.13;1.83;;;28.00;62.30;;;;;;5055296;28;20204;-73
2023/06/24 10:06:32;;;;;;;7.18;2.15;;;28.40;61.60;;;;;;5063649;28;20192;-73
2023/06/24 10:08:59;;;;;;;3.45;1.60;;;28.10;59.60;;;;;;5054313;28;20260;-73
2023/06/24 10:11:24;;;;;;;3.20;1.70;;;28.30;58.50;;;;;;5061928;28;20222;-73
2023/06/24 10:13:51;;;;;;;4.55;1.75;;;28.10;58.40;;;;;;5059332;28;20193;-74
2023/06/24 10:16:16;;;;;;;3.47;1.90;;;28.10;58.40;;;;;;5054202;28;20205;-74
2023/06/24 10:18:44;;;;;;;4.88;1.90;;;27.10;60.80;;;;;;5053999;28;20224;-73
2023/06/24 10:21:11;;;;;;;3.22;1.85;;;27.10;62.10;;;;;;5061530;28;20180;-73
2023/06/24 10:23:48;;;;;;;4.15;1.40;;;26.90;62.70;;;;;;5071701;28;20251;-73
2023/06/24 10:26:28;;;;;;;3.35;1.40;;;27.00;62.20;;;;;;5053828;28;20196;-74
2023/06/24 10:29:06;;;;;;;4.63;1.80;;;26.80;62.50;;;;;;5053769;28;20177;-73
2023/06/24 10:31:51;;;;;;;3.95;2.22;;;27.10;64.00;;;;;;5053682;28;20191;-74
2023/06/24 10:34:22;;;;;;;4.57;1.83;;;27.20;61.40;;;;;;5055439;28;20181;-73
2023/06/24 10:37:09;;;;;;;2.78;1.73;;;26.60;61.30;;;;;;5053531;28;20223;-74
2023/06/24 10:39:46;;;;;;;4.97;2.67;;;26.70;61.30;;;;;;5054004;28;20181;-73
2023/06/24 10:42:23;;;;;;;3.77;1.33;;;26.40;61.60;;;;;;5053167;28;20189;-75
2023/06/24 10:44:50;;;;;;;5.03;1.93;;;26.00;61.50;;;;;;5056785;28;20249;-75
2023/06/24 10:47:16;;;;;;;2.23;1.27;;;26.10;63.20;;;;;;5062879;28;20173;-75
2023/06/24 10:49:42;;;;;;;3.63;1.63;;;26.50;61.10;;;;;;5053702;28;20223;-75
2023/06/24 10:52:11;;;;;;;3.20;1.43;;;26.50;60.70;;;;;;5051795;28;20182;-75
2023/06/24 10:54:38;;;;;;;2.50;1.73;;;26.40;61.30;;;;;;5053609;28;20182;-75
2023/06/24 10:57:04;;;;;;;4.23;2.10;;;26.20;60.60;;;;;;5053801;28;20431;-75
2023/06/24 10:59:41;;;;;;;3.20;1.70;;;26.30;60.20;;;;;;5057173;28;20208;-75
2023/06/24 11:02:09;;;;;;;2.73;1.53;;;26.50;62.20;;;;;;5061461;28;20653;-75
2023/06/24 11:04:43;;;;;;;5.10;1.47;;;26.60;59.40;;;;;;5052928;28;21013;-75
2023/06/24 11:07:09;;;;;;;2.47;1.40;;;26.60;59.60;;;;;;5053193;28;20423;-76
2023/06/24 11:09:34;;;;;;;2.73;1.63;;;26.60;61.10;;;;;;5059723;28;20415;-75
2023/06/24 11:12:02;;;;;;;3.30;2.17;;;26.60;60.80;;;;;;5059694;28;20235;-75
2023/06/24 11:14:28;;;;;;;4.30;1.50;;;26.90;60.20;;;;;;5049417;28;20658;-75
2023/06/24 11:16:54;;;;;;;2.90;1.67;;;26.80;59.20;;;;;;5052969;28;20527;-75
2023/06/24 11:19:19;;;;;;;2.63;1.67;;;26.90;58.50;;;;;;5052366;28;20612;-75
2023/06/24 11:21:45;;;;;;;3.43;1.90;;;27.10;58.00;;;;;;5052138;28;20227;-75
2023/06/24 11:24:11;;;;;;;3.27;1.30;;;27.20;57.70;;;;;;5059588;28;20562;-75
2023/06/24 11:26:37;;;;;;;2.63;1.20;;;27.10;58.60;;;;;;5059220;28;20185;-75
2023/06/24 11:29:11;;;;;;;3.63;1.50;;;27.10;57.70;;;;;;5063809;28;20181;-75
2023/06/24 11:31:37;;;;;;;2.57;1.63;;;27.10;58.70;;;;;;5054362;28;20633;-75
2023/06/24 11:34:03;;;;;;;3.80;2.10;;;27.00;58.30;;;;;;5052499;28;20189;-76
2023/06/24 11:36:29;;;;;;;3.00;1.83;;;26.70;59.40;;;;;;5052018;28;20264;-75
2023/06/24 11:38:55;;;;;;;3.50;1.63;;;27.20;59.40;;;;;;5052765;28;20634;-76
2023/06/24 11:41:25;;;;;;;3.40;1.50;;;27.20;59.00;;;;;;5052084;28;20186;-75
2023/06/24 11:43:51;;;;;;;3.90;2.30;;;27.50;57.80;;;;;;5052451;28;20595;-75
2023/06/24 11:46:25;;;;;;;4.30;1.60;;;26.90;57.70;;;;;;5053345;28;20239;-75
2023/06/24 11:48:52;;;;;;;2.27;1.50;;;26.80;58.80;;;;;;5062902;28;20199;-75
2023/06/24 11:51:17;;;;;;;3.10;1.60;;;26.70;59.60;;;;;;5051280;28;20554;-75
2023/06/24 11:53:46;;;;;;;3.80;1.40;;;26.80;58.50;;;;;;5061933;28;20191;-75
2023/06/24 11:56:12;;;;;;;12.33;1.90;;;26.90;59.50;;;;;;5058621;28;20184;-76
2023/06/24 11:58:38;;;;;;;5.23;1.80;;;26.90;58.10;;;;;;5062497;28;20638;-75
2023/06/24 12:01:07;;;;;;;2.67;1.67;;;27.00;57.20;;;;;;5054901;28;20196;-76
2023/06/24 12:03:33;;;;;;;4.20;1.47;;;27.10;60.40;;;;;;5061301;28;20592;-76
2023/06/24 12:05:59;;;;;;;2.50;1.17;;;27.30;56.10;;;;;;5055282;28;20172;-76
2023/06/24 12:08:25;;;;;;;3.33;1.40;;;27.10;57.40;;;;;;5061903;28;20181;-76
2023/06/24 12:10:51;;;;;;;3.40;1.47;;;27.30;56.80;;;;;;5051259;28;20204;-76
2023/06/24 12:13:17;;;;;;;4.77;1.60;;;27.40;56.50;;;;;;5051877;28;20188;-76
2023/06/24 12:15:43;;;;;;;2.83;1.80;;;27.30;56.10;;;;;;5051749;28;20181;-76
2023/06/24 12:18:09;;;;;;;8.63;1.87;;;27.50;56.00;;;;;;5051567;28;20185;-76
2023/06/24 12:20:36;;;;;;;2.27;1.23;;;27.20;56.00;;;;;;5055175;28;20181;-76
2023/06/24 12:23:03;;;;;;;3.40;2.00;;;27.20;57.10;;;;;;5061129;28;20565;-76
2023/06/24 12:25:29;;;;;;;4.20;1.47;;;27.20;56.70;;;;;;5051854;28;20760;-75
2023/06/24 12:27:55;;;;;;;2.83;1.73;;;27.10;55.30;;;;;;5062115;28;20267;-75
2023/06/24 12:30:21;;;;;;;2.70;1.10;;;27.30;54.40;;;;;;5054199;28;20180;-75
2023/06/24 12:32:49;;;;;;;2.60;1.60;;;27.50;54.30;;;;;;5051061;28;20177;-75
2023/06/24 12:35:15;;;;;;;3.90;2.17;;;27.40;56.40;;;;;;5068971;28;20473;-76
2023/06/24 12:37:41;;;;;;;4.43;2.10;;;27.30;54.70;;;;;;5051444;28;20192;-76
2023/06/24 12:40:07;;;;;;;3.20;1.70;;;27.30;55.30;;;;;;5051009;28;20189;-75
2023/06/24 12:42:33;;;;;;;7.27;2.40;;;27.50;53.10;;;;;;5050620;28;20189;-76
2023/06/24 12:45:00;;;;;;;3.00;1.60;;;27.60;54.50;;;;;;5055136;28;20207;-73
2023/06/24 12:47:26;;;;;;;3.80;1.90;;;27.90;52.90;;;;;;5070626;28;20188;-73